Time;durP1;ratioP1;P1;durP2;ratioP2;P2;SDS_P1;SDS_P2;PMS_P1;PMS_P2;Temp;Humidity;BMP_temperature;BMP_pressure;BME280_temperature;BME280_humidity;BME280_pressure;Samples;Min_cycle;Max_cycle;Signal;HPM_P1;HPM_P2
2022/07/14 00:02:03;;;;;;;;;;;;;;;11.86;75.01;97591.30;110495;1245;69428;-66
2022/07/14 00:04:33;;;;;;;;;;;;;;;11.82;72.78;97592.64;110185;1247;58876;-68
2022/07/14 00:07:02;;;;;;;;;;;;;;;11.80;73.79;97589.52;110205;1246;58916;-68
2022/07/14 00:09:31;;;;;;;;;;;;;;;11.75;74.40;97590.72;110172;1247;69842;-66
2022/07/14 00:12:00;;;;;;;;;;;;;;;11.73;74.17;97585.59;110298;1247;68396;-68
2022/07/14 00:14:30;;;;;;;;;;;;;;;11.73;74.49;97584.54;110320;1247;69384;-68
2022/07/14 00:16:59;;;;;;;;;;;;;;;11.75;74.78;97589.84;110288;1247;58879;-66
2022/07/14 00:19:29;;;;;;;;;;;;;;;11.79;74.13;97593.06;110539;1245;58880;-66
2022/07/14 00:21:58;;;;;;;;;;;;;;;11.81;71.04;97594.28;110060;1248;70020;-67
2022/07/14 00:24:29;;;;;;;;;;;;;;;11.83;70.49;97595.73;110216;1247;68504;-66
2022/07/14 00:26:58;;;;;;;;;;;;;;;11.86;74.91;97601.11;110541;1245;68769;-68
2022/07/14 00:29:29;;;;;;;;;;;;;;;11.86;75.57;97605.11;110413;1244;58903;-66
2022/07/14 00:31:58;;;;;;;;;;;;;;;11.85;72.22;97602.09;110389;1245;58946;-67
2022/07/14 00:34:28;;;;;;;;;;;;;;;11.84;71.58;97598.64;110238;1247;69897;-67
2022/07/14 00:36:58;;;;;;;;;;;;;;;11.84;73.23;97605.31;110376;1244;68533;-66
2022/07/14 00:39:54;;;;;;;;;;;;;;;11.82;76.11;97606.80;110540;1245;68609;-67
2022/07/14 00:42:32;;;;;;;;;;;;;;;11.70;73.70;97600.72;110339;1247;58957;-66
2022/07/14 00:45:09;;;;;;;;;;;;;;;11.58;73.37;97601.77;110544;1244;58853;-67
2022/07/14 00:47:40;;;;;;;;;;;;;;;11.47;77.46;97601.83;110458;1246;70681;-66
2022/07/14 00:50:10;;;;;;;;;;;;;;;11.41;76.90;97600.02;110201;1247;68594;-66
2022/07/14 00:52:42;;;;;;;;;;;;;;;11.37;77.04;97608.20;110375;1247;68397;-66
2022/07/14 00:55:13;;;;;;;;;;;;;;;11.31;78.28;97605.83;110116;1247;58984;-66
2022/07/14 00:57:43;;;;;;;;;;;;;;;11.26;77.23;97605.71;110353;1246;58867;-66
2022/07/14 01:00:13;;;;;;;;;;;;;;;11.21;77.03;97604.80;110440;1245;71786;-66
2022/07/14 01:02:46;;;;;;;;;;;;;;;11.17;76.69;97605.27;110525;1244;67715;-67
2022/07/14 01:05:17;;;;;;;;;;;;;;;11.16;78.95;97606.73;110177;1247;69370;-67
2022/07/14 01:07:47;;;;;;;;;;;;;;;11.16;79.36;97607.92;110203;1247;58967;-66
2022/07/14 01:10:21;;;;;;;;;;;;;;;11.15;78.27;97617.59;110385;1245;58854;-66
2022/07/14 01:12:51;;;;;;;;;;;;;;;11.11;76.55;97622.05;110246;1244;69846;-66
2022/07/14 01:15:25;;;;;;;;;;;;;;;11.08;77.79;97622.49;110215;1246;68592;-67
2022/07/14 01:17:55;;;;;;;;;;;;;;;11.03;80.13;97620.06;110489;1244;68478;-67
2022/07/14 01:20:26;;;;;;;;;;;;;;;10.98;79.40;97616.25;110504;1246;59098;-66
2022/07/14 01:22:56;;;;;;;;;;;;;;;10.94;80.06;97617.34;110504;1244;59643;-66
2022/07/14 01:25:25;;;;;;;;;;;;;;;10.93;77.62;97615.91;110177;1247;70733;-67
2022/07/14 01:27:55;;;;;;;;;;;;;;;10.93;78.31;97616.36;110281;1247;67759;-66
2022/07/14 01:30:26;;;;;;;;;;;;;;;10.94;79.86;97617.93;110029;1248;68813;-68
2022/07/14 01:32:57;;;;;;;;;;;;;;;10.90;77.18;97624.13;110337;1245;59903;-66
2022/07/14 01:35:27;;;;;;;;;;;;;;;10.86;75.46;97629.09;110146;1247;59123;-67
2022/07/14 01:37:57;;;;;;;;;;;;;;;10.84;78.17;97629.80;110229;1248;70715;-67
2022/07/14 01:40:27;;;;;;;;;;;;;;;10.80;80.85;97627.66;110214;1247;67776;-66
2022/07/14 01:42:58;;;;;;;;;;;;;;;10.75;81.04;97631.09;110151;1247;67665;-66
2022/07/14 01:45:27;;;;;;;;;;;;;;;10.70;80.45;97628.84;110308;1245;59692;-67
2022/07/14 01:47:57;;;;;;;;;;;;;;;10.65;80.00;97622.86;110100;1247;59699;-66
2022/07/14 01:50:27;;;;;;;;;;;;;;;10.61;79.78;97623.88;110138;1247;71530;-67
2022/07/14 01:52:57;;;;;;;;;;;;;;;10.56;77.70;97625.27;110236;1247;67663;-67
2022/07/14 01:55:28;;;;;;;;;;;;;;;10.54;80.14;97631.53;110190;1247;69245;-67
2022/07/14 01:57:58;;;;;;;;;;;;;;;10.50;80.54;97629.02;110047;1247;59606;-66
2022/07/14 02:00:28;;;;;;;;;;;;;;;10.47;77.81;97623.48;110204;1247;59676;-66
2022/07/14 02:03:00;;;;;;;;;;;;;;;10.45;78.81;97626.36;110136;1247;70762;-69
2022/07/14 02:05:30;;;;;;;;;;;;;;;10.47;78.52;97630.10;110012;1248;67815;-68
2022/07/14 02:08:00;;;;;;;;;;;;;;;10.49;79.33;97633.27;110152;1247;68554;-68
2022/07/14 02:13:23;;;;;;;;;;;;;;;10.51;77.08;97627.70;110141;1247;59756;-67
2022/07/14 02:15:55;;;;;;;;;;;;;;;10.52;76.57;97627.50;110194;1247;71598;-70
2022/07/14 02:18:27;;;;;;;;;;;;;;;10.51;77.06;97633.85;110296;1247;67772;-67
2022/07/14 02:20:56;;;;;;;;;;;;;;;10.50;78.24;97638.58;110255;1247;69272;-68
2022/07/14 02:23:26;;;;;;;;;;;;;;;10.51;81.20;97638.52;110182;1247;59661;-67
2022/07/14 02:25:56;;;;;;;;;;;;;;;10.50;82.75;97635.65;110449;1244;60184;-67
2022/07/14 02:28:26;;;;;;;;;;;;;;;10.48;83.21;97635.42;110273;1245;70996;-67
2022/07/14 02:30:56;;;;;;;;;;;;;;;10.44;82.47;97634.64;110275;1247;67911;-69
2022/07/14 02:33:26;;;;;;;;;;;;;;;10.43;83.84;97645.14;110212;1247;68806;-67
2022/07/14 02:35:56;;;;;;;;;;;;;;;10.43;84.10;97648.49;109962;1248;60073;-66
2022/07/14 02:38:26;;;;;;;;;;;;;;;10.43;84.05;97646.39;110466;1244;59685;-66
2022/07/14 02:40:57;;;;;;;;;;;;;;;10.43;82.99;97647.23;110577;1244;70767;-65
2022/07/14 02:43:27;;;;;;;;;;;;;;;10.42;82.13;97642.27;110588;1244;67904;-66
2022/07/14 02:45:56;;;;;;;;;;;;;;;10.42;83.29;97645.55;110561;1245;69864;-66
2022/07/14 02:48:27;;;;;;;;;;;;;;;10.44;83.87;97655.21;110236;1245;59702;-67
2022/07/14 02:50:59;;;;;;;;;;;;;;;10.43;81.86;97659.77;110313;1245;60093;-66
2022/07/14 02:53:31;;;;;;;;;;;;;;;10.40;81.40;97660.54;110070;1245;71705;-66
2022/07/14 02:56:01;;;;;;;;;;;;;;;10.36;81.77;97663.61;110279;1245;68506;-66
2022/07/14 02:58:33;;;;;;;;;;;;;;;10.30;83.17;97665.60;110193;1247;68648;-67
2022/07/14 03:01:06;;;;;;;;;;;;;;;10.26;83.44;97669.34;110146;1247;59690;-66
2022/07/14 03:03:38;;;;;;;;;;;;;;;10.22;83.25;97671.48;110261;1247;59738;-66
2022/07/14 03:06:12;;;;;;;;;;;;;;;10.19;83.37;97667.63;110300;1245;71524;-66
2022/07/14 03:08:43;;;;;;;;;;;;;;;10.20;83.68;97674.39;110221;1246;68728;-67
2022/07/14 03:11:12;;;;;;;;;;;;;;;10.26;83.50;97677.36;110357;1244;69349;-65
2022/07/14 03:13:43;;;;;;;;;;;;;;;10.32;81.88;97678.66;109988;1247;59736;-70
2022/07/14 03:16:12;;;;;;;;;;;;;;;10.37;82.17;97674.16;110496;1245;59699;-67
2022/07/14 03:18:42;;;;;;;;;;;;;;;10.40;83.72;97675.17;110387;1244;71527;-67
2022/07/14 03:21:12;;;;;;;;;;;;;;;10.45;84.08;97673.07;110595;1244;68501;-68
2022/07/14 03:23:45;;;;;;;;;;;;;;;10.51;84.08;97676.67;110518;1244;69378;-67
2022/07/14 03:26:18;;;;;;;;;;;;;;;10.56;84.16;97674.61;110247;1246;59685;-67
2022/07/14 03:28:48;;;;;;;;;;;;;;;10.60;83.88;97677.63;110433;1244;59619;-68
2022/07/14 03:31:17;;;;;;;;;;;;;;;10.64;82.32;97680.34;110257;1247;71485;-68
2022/07/14 03:33:47;;;;;;;;;;;;;;;10.66;81.50;97678.23;110385;1245;67717;-67
2022/07/14 03:36:19;;;;;;;;;;;;;;;10.65;80.89;97672.58;110245;1247;69202;-67
2022/07/14 03:38:49;;;;;;;;;;;;;;;10.66;81.30;97677.91;110190;1247;59764;-66
2022/07/14 03:41:20;;;;;;;;;;;;;;;10.66;83.50;97676.29;110277;1247;59663;-67
2022/07/14 03:43:51;;;;;;;;;;;;;;;10.66;83.25;97674.90;110300;1247;71605;-67
2022/07/14 03:46:21;;;;;;;;;;;;;;;10.65;83.76;97674.51;110396;1245;69168;-67
2022/07/14 03:48:57;;;;;;;;;;;;;;;10.66;83.05;97671.80;110391;1244;69333;-67
2022/07/14 03:51:27;;;;;;;;;;;;;;;10.70;83.52;97671.20;110243;1243;59690;-69
2022/07/14 03:53:57;;;;;;;;;;;;;;;10.75;81.54;97674.85;110370;1247;59724;-67
2022/07/14 03:56:27;;;;;;;;;;;;;;;10.81;79.94;97680.35;110187;1247;70738;-66
2022/07/14 03:58:57;;;;;;;;;;;;;;;10.90;79.39;97679.23;110247;1244;68360;-67
2022/07/14 04:01:27;;;;;;;;;;;;;;;11.02;82.60;97679.61;110575;1244;68609;-67
2022/07/14 04:04:00;;;;;;;;;;;;;;;11.13;83.17;97683.54;110447;1244;59710;-67
2022/07/14 04:06:30;;;;;;;;;;;;;;;11.24;83.38;97686.75;110034;1247;59709;-66
2022/07/14 04:09:00;;;;;;;;;;;;;;;11.34;82.99;97688.84;110454;1244;71579;-69
2022/07/14 04:11:31;;;;;;;;;;;;;;;11.44;82.14;97694.38;110417;1244;68596;-67
2022/07/14 04:14:01;;;;;;;;;;;;;;;11.56;80.52;97703.35;110175;1247;68579;-66
2022/07/14 04:16:31;;;;;;;;;;;;;;;11.66;81.15;97699.79;110546;1244;59706;-65
2022/07/14 04:19:05;;;;;;;;;;;;;;;11.75;78.56;97701.20;110316;1247;59702;-66
2022/07/14 04:21:36;;;;;;;;;;;;;;;11.87;77.48;97706.90;110523;1244;71546;-68
2022/07/14 04:24:07;;;;;;;;;;;;;;;11.99;79.51;97712.25;110338;1245;68535;-66
2022/07/14 04:26:37;;;;;;;;;;;;;;;12.12;80.25;97699.05;110184;1247;68798;-66
2022/07/14 04:29:08;;;;;;;;;;;;;;;12.24;80.30;97703.74;110265;1247;59866;-66
2022/07/14 04:31:39;;;;;;;;;;;;;;;12.31;79.53;97707.60;110287;1245;59689;-66
2022/07/14 04:34:12;;;;;;;;;;;;;;;12.33;79.36;97707.08;110153;1247;70607;-66
2022/07/14 04:36:41;;;;;;;;;;;;;;;12.36;78.43;97706.56;110246;1245;68373;-66
2022/07/14 04:39:12;;;;;;;;;;;;;;;12.39;77.46;97710.29;110242;1247;68703;-66
2022/07/14 04:41:43;;;;;;;;;;;;;;;12.47;77.64;97713.20;110250;1244;59751;-68
2022/07/14 04:44:12;;;;;;;;;;;;;;;12.59;78.24;97717.36;110436;1245;59630;-66
2022/07/14 04:46:45;;;;;;;;;;;;;;;12.72;78.09;97715.84;110206;1244;71515;-66
2022/07/14 04:52:02;;;;;;;;;;;;;;;12.97;77.53;97718.48;110337;1244;68613;-66
2022/07/14 04:54:52;;;;;;;;;;;;;;;13.13;77.26;97718.94;110193;1247;59754;-66
2022/07/14 04:57:41;;;;;;;;;;;;;;;13.33;76.66;97716.39;110398;1245;59646;-66
2022/07/14 05:00:15;;;;;;;;;;;;;;;13.51;75.51;97721.92;110250;1247;71647;-68
2022/07/14 05:02:44;;;;;;;;;;;;;;;13.68;74.55;97726.21;110346;1244;68082;-68
2022/07/14 05:05:13;;;;;;;;;;;;;;;13.81;73.26;97727.40;110472;1244;69606;-66
2022/07/14 05:07:42;;;;;;;;;;;;;;;13.99;72.95;97729.27;110088;1247;59704;-67
2022/07/14 05:10:20;;;;;;;;;;;;;;;14.22;72.03;97725.13;110257;1247;59709;-66
2022/07/14 05:12:50;;;;;;;;;;;;;;;14.52;72.19;97722.13;110242;1244;70743;-66
2022/07/14 05:15:20;;;;;;;;;;;;;;;14.93;71.89;97718.86;110301;1247;67691;-66
2022/07/14 05:17:49;;;;;;;;;;;;;;;15.46;71.60;97725.11;110275;1246;69680;-68
2022/07/14 05:20:19;;;;;;;;;;;;;;;16.07;66.30;97727.83;110453;1244;59767;-67
2022/07/14 05:22:48;;;;;;;;;;;;;;;16.53;64.78;97723.96;110414;1245;59608;-67
2022/07/14 05:25:17;;;;;;;;;;;;;;;16.87;61.28;97723.91;110409;1245;71564;-66
2022/07/14 05:27:47;;;;;;;;;;;;;;;17.36;61.75;97722.21;110427;1245;68613;-68
2022/07/14 05:30:25;;;;;;;;;;;;;;;17.72;59.08;97719.25;110273;1247;68454;-67
2022/07/14 05:32:57;;;;;;;;;;;;;;;17.97;58.47;97714.83;110282;1247;59680;-66
2022/07/14 05:35:27;;;;;;;;;;;;;;;18.15;57.86;97714.17;110451;1245;59711;-67
2022/07/14 05:37:57;;;;;;;;;;;;;;;18.33;57.78;97719.06;110183;1247;71547;-66
2022/07/14 05:40:27;;;;;;;;;;;;;;;18.35;56.19;97717.95;110389;1244;67632;-66
2022/07/14 05:42:56;;;;;;;;;;;;;;;18.51;57.45;97716.06;110208;1247;67477;-67
2022/07/14 05:45:26;;;;;;;;;;;;;;;18.61;56.44;97717.19;110253;1244;59683;-67
2022/07/14 05:47:55;;;;;;;;;;;;;;;18.54;54.85;97716.30;109932;1246;59717;-67
2022/07/14 05:50:25;;;;;;;;;;;;;;;18.49;54.09;97720.26;110100;1247;71549;-66
2022/07/14 05:52:55;;;;;;;;;;;;;;;18.38;54.94;97721.91;110110;1247;67828;-68
2022/07/14 05:55:25;;;;;;;;;;;;;;;18.39;54.95;97722.39;110419;1244;70610;-68
2022/07/14 05:57:55;;;;;;;;;;;;;;;18.35;54.59;97726.07;110282;1246;59748;-68
2022/07/14 06:00:24;;;;;;;;;;;;;;;18.59;54.39;97726.39;110464;1245;60068;-66
2022/07/14 06:02:54;;;;;;;;;;;;;;;18.76;54.24;97726.06;110233;1246;72184;-67
2022/07/14 06:05:28;;;;;;;;;;;;;;;18.85;54.22;97724.58;110463;1244;68587;-71
2022/07/14 06:07:57;;;;;;;;;;;;;;;19.09;54.41;97720.61;110487;1244;69509;-69
2022/07/14 06:10:26;;;;;;;;;;;;;;;19.30;53.84;97722.14;110267;1244;59718;-69
2022/07/14 06:12:57;;;;;;;;;;;;;;;19.41;52.91;97726.62;110256;1245;59637;-68
2022/07/14 06:15:27;;;;;;;;;;;;;;;19.49;51.69;97725.46;110219;1247;70602;-68
2022/07/14 06:17:56;;;;;;;;;;;;;;;19.60;52.02;97727.46;110104;1247;67775;-68
2022/07/14 06:20:25;;;;;;;;;;;;;;;19.85;51.71;97728.36;110384;1244;68538;-67
2022/07/14 06:22:55;;;;;;;;;;;;;;;20.26;50.71;97730.62;110112;1244;59763;-68
2022/07/14 06:25:25;;;;;;;;;;;;;;;20.78;51.12;97725.31;110074;1245;59680;-67
2022/07/14 06:27:54;;;;;;;;;;;;;;;21.21;48.87;97724.56;110284;1245;70730;-66
2022/07/14 06:30:24;;;;;;;;;;;;;;;21.42;48.20;97723.73;110455;1245;68645;-66
2022/07/14 06:32:53;;;;;;;;;;;;;;;21.71;47.52;97723.42;110248;1244;68647;-70
2022/07/14 06:35:22;;;;;;;;;;;;;;;21.88;46.47;97724.36;110494;1244;59716;-69
2022/07/14 06:37:52;;;;;;;;;;;;;;;22.17;45.63;97727.67;110463;1244;59657;-67
2022/07/14 06:40:22;;;;;;;;;;;;;;;22.27;45.38;97726.11;110250;1246;71371;-68
2022/07/14 06:42:51;;;;;;;;;;;;;;;22.28;45.47;97730.06;110210;1245;67838;-68
2022/07/14 06:45:25;;;;;;;;;;;;;;;22.44;45.84;97728.61;110214;1247;69461;-66
2022/07/14 06:47:55;;;;;;;;;;;;;;;22.34;44.10;97724.96;110373;1244;59771;-67
2022/07/14 06:50:24;;;;;;;;;;;;;;;22.34;43.41;97724.80;110191;1244;59689;-66
2022/07/14 06:52:54;;;;;;;;;;;;;;;22.42;44.45;97724.48;110308;1245;70736;-69
2022/07/14 06:55:23;;;;;;;;;;;;;;;22.48;44.00;97726.64;110517;1244;68623;-66
2022/07/14 06:57:52;;;;;;;;;;;;;;;22.46;42.91;97728.02;110066;1247;68878;-68
2022/07/14 07:00:28;;;;;;;;;;;;;;;22.75;42.89;97722.40;110354;1244;59755;-67
2022/07/14 07:02:57;;;;;;;;;;;;;;;23.22;43.24;97719.39;110237;1245;59707;-66
2022/07/14 07:08:13;;;;;;;;;;;;;;;24.03;40.62;97721.80;110368;1246;68410;-66
2022/07/14 07:10:42;;;;;;;;;;;;;;;24.44;38.37;97723.27;110464;1244;69158;-67
2022/07/14 07:13:11;;;;;;;;;;;;;;;24.67;36.59;97718.29;110404;1244;60055;-69
2022/07/14 07:15:39;;;;;;;;;;;;;;;24.97;37.56;97715.69;110435;1244;59668;-68
2022/07/14 07:18:09;;;;;;;;;;;;;;;25.40;36.47;97711.48;110441;1245;70123;-66
2022/07/14 07:20:38;;;;;;;;;;;;;;;25.52;35.27;97712.65;110253;1245;68770;-66
2022/07/14 07:23:07;;;;;;;;;;;;;;;25.53;34.93;97710.50;110033;1247;69421;-69
2022/07/14 07:25:36;;;;;;;;;;;;;;;25.96;34.96;97708.39;110274;1244;59751;-67
2022/07/14 07:28:06;;;;;;;;;;;;;;;26.35;34.99;97711.19;110307;1244;59676;-68
2022/07/14 07:30:36;;;;;;;;;;;;;;;26.68;33.97;97706.56;110298;1244;70776;-70
2022/07/14 07:33:05;;;;;;;;;;;;;;;26.90;33.04;97703.25;110458;1244;68563;-69
2022/07/14 07:35:34;;;;;;;;;;;;;;;27.20;32.95;97704.60;110393;1244;69503;-66
2022/07/14 07:38:07;;;;;;;;;;;;;;;27.37;32.46;97701.90;109714;1245;951971;-67
2022/07/14 07:40:36;;;;;;;;;;;;;;;27.52;32.78;97703.55;110438;1244;59704;-66
2022/07/14 07:43:05;;;;;;;;;;;;;;;27.82;32.14;97705.59;110337;1244;71638;-69
2022/07/14 07:45:34;;;;;;;;;;;;;;;28.01;31.13;97704.95;110252;1245;67984;-67
2022/07/14 07:48:04;;;;;;;;;;;;;;;27.95;31.18;97701.27;109962;1247;69679;-67
2022/07/14 07:50:33;;;;;;;;;;;;;;;27.87;31.60;97696.68;110321;1244;59725;-70
2022/07/14 07:53:04;;;;;;;;;;;;;;;27.65;32.06;97698.13;110337;1244;59611;-67
2022/07/14 07:55:34;;;;;;;;;;;;;;;27.85;31.60;97699.05;110384;1244;70696;-67
2022/07/14 07:58:11;;;;;;;;;;;;;;;28.10;31.06;97698.78;110546;1244;67860;-67
2022/07/14 08:00:47;;;;;;;;;;;;;;;28.29;31.77;97694.49;110116;1246;68689;-68
2022/07/14 08:03:16;;;;;;;;;;;;;;;28.59;31.14;97691.84;110420;1244;59795;-68
2022/07/14 08:05:45;;;;;;;;;;;;;;;28.69;30.80;97683.78;110379;1244;59735;-67
2022/07/14 08:08:31;;;;;;;;;;;;;;;28.22;30.57;97684.73;110539;1244;70735;-66
2022/07/14 08:11:00;;;;;;;;;;;;;;;28.08;31.10;97689.08;110570;1244;67917;-68
2022/07/14 08:13:29;;;;;;;;;;;;;;;28.19;30.98;97687.32;110518;1244;68650;-68
2022/07/14 08:15:58;;;;;;;;;;;;;;;28.30;31.20;97686.34;110335;1244;59702;-65
2022/07/14 08:18:28;;;;;;;;;;;;;;;27.90;31.55;97679.47;110185;1247;59744;-63
2022/07/14 08:20:58;;;;;;;;;;;;;;;27.99;31.38;97681.08;110167;1247;71376;-70
2022/07/14 08:23:32;;;;;;;;;;;;;;;27.93;31.40;97675.55;110271;1244;68628;-67
2022/07/14 08:26:01;;;;;;;;;;;;;;;27.63;31.64;97674.30;110586;1244;69422;-68
2022/07/14 08:28:30;;;;;;;;;;;;;;;28.03;31.40;97673.98;110205;1244;59731;-68
2022/07/14 08:30:59;;;;;;;;;;;;;;;28.10;31.80;97674.05;110538;1244;59667;-68
2022/07/14 08:33:30;;;;;;;;;;;;;;;28.42;31.17;97672.67;110491;1244;72225;-69
2022/07/14 08:35:59;;;;;;;;;;;;;;;28.74;31.47;97666.89;110340;1244;68610;-67
2022/07/14 08:38:27;;;;;;;;;;;;;;;28.91;30.70;97665.49;110209;1245;68688;-67
2022/07/14 08:40:56;;;;;;;;;;;;;;;29.28;30.84;97664.25;110424;1244;59709;-67
2022/07/14 08:43:26;;;;;;;;;;;;;;;29.78;29.76;97662.33;110389;1244;59713;-68
2022/07/14 08:45:55;;;;;;;;;;;;;;;29.99;29.23;97661.42;110254;1244;71579;-69
2022/07/14 08:48:25;;;;;;;;;;;;;;;30.03;29.49;97656.44;110562;1244;68725;-67
2022/07/14 08:50:57;;;;;;;;;;;;;;;30.24;28.71;97659.50;110394;1244;68989;-67
2022/07/14 08:53:27;;;;;;;;;;;;;;;30.06;28.91;97656.26;110457;1244;59659;-66
2022/07/14 08:55:57;;;;;;;;;;;;;;;30.00;28.92;97658.13;110460;1244;59744;-72
2022/07/14 08:58:26;;;;;;;;;;;;;;;29.98;29.14;97655.86;110119;1247;71889;-69
2022/07/14 09:00:55;;;;;;;;;;;;;;;29.95;28.98;97652.48;110471;1244;67681;-68
2022/07/14 09:03:24;;;;;;;;;;;;;;;29.84;29.23;97652.79;110138;1247;69513;-68
2022/07/14 09:06:32;;;;;;;;;;;;;;;30.35;28.83;97651.97;110484;1245;59666;-69
2022/07/14 09:09:02;;;;;;;;;;;;;;;30.39;28.35;97656.23;110180;1245;59669;-69
2022/07/14 09:11:31;;;;;;;;;;;;;;;30.34;28.44;97652.27;110186;1247;71942;-68
2022/07/14 09:14:09;;;;;;;;;;;;;;;29.86;29.53;97648.79;110209;1246;68445;-69
2022/07/14 09:16:38;;;;;;;;;;;;;;;30.10;28.80;97648.29;110222;1247;69590;-69
2022/07/14 09:19:09;;;;;;;;;;;;;;;30.22;28.81;97646.83;110502;1244;59748;-69
2022/07/14 09:21:39;;;;;;;;;;;;;;;30.37;28.78;97640.09;110447;1244;59601;-68
2022/07/14 09:24:08;;;;;;;;;;;;;;;30.42;28.57;97641.70;110403;1244;71081;-69
2022/07/14 09:26:47;;;;;;;;;;;;;;;30.33;28.11;97641.89;110370;1244;67903;-69
2022/07/14 09:29:21;;;;;;;;;;;;;;;29.96;28.54;97642.01;110498;1242;67457;-67
2022/07/14 09:31:50;;;;;;;;;;;;;;;29.73;29.66;97635.05;110370;1244;59663;-68
2022/07/14 09:34:26;;;;;;;;;;;;;;;29.74;29.13;97636.93;110426;1245;59685;-70
2022/07/14 09:37:15;;;;;;;;;;;;;;;30.39;28.76;97633.73;110552;1244;71581;-68
2022/07/14 09:39:57;;;;;;;;;;;;;;;30.76;28.53;97625.02;110417;1244;68319;-74
2022/07/14 09:42:45;;;;;;;;;;;;;;;31.29;27.80;97622.34;110420;1244;68515;-71
2022/07/14 09:45:14;;;;;;;;;;;;;;;31.55;27.19;97622.16;110207;1247;59734;-72
2022/07/14 09:47:53;;;;;;;;;;;;;;;31.43;27.09;97618.91;110460;1244;59750;-68
2022/07/14 09:50:36;;;;;;;;;;;;;;;31.58;27.04;97615.67;110280;1247;71372;-68
2022/07/14 09:53:15;;;;;;;;;;;;;;;31.86;26.70;97611.21;110392;1244;68833;-68
2022/07/14 09:55:51;;;;;;;;;;;;;;;31.25;27.15;97605.41;110483;1243;69258;-68
2022/07/14 09:58:21;;;;;;;;;;;;;;;31.27;27.35;97600.59;110235;1245;59766;-69
2022/07/14 10:01:07;;;;;;;;;;;;;;;30.86;26.99;97600.30;110498;1244;59676;-73
2022/07/14 10:03:40;;;;;;;;;;;;;;;30.93;27.18;97597.12;110539;1244;70762;-71
2022/07/14 10:06:10;;;;;;;;;;;;;;;30.99;27.21;97600.20;110417;1244;67929;-69
2022/07/14 10:09:00;;;;;;;;;;;;;;;30.51;27.04;97599.92;110180;1247;69461;-68
2022/07/14 10:11:29;;;;;;;;;;;;;;;30.88;27.52;97593.92;110245;1247;59768;-68
2022/07/14 10:13:59;;;;;;;;;;;;;;;30.80;27.38;97593.98;110405;1244;59633;-66
2022/07/14 10:16:35;;;;;;;;;;;;;;;30.43;27.81;97589.59;110370;1244;70556;-68
2022/07/14 10:19:04;;;;;;;;;;;;;;;30.22;27.97;97593.35;110427;1244;67841;-69
2022/07/14 10:21:41;;;;;;;;;;;;;;;30.32;28.89;97591.05;110258;1245;68899;-69
2022/07/14 10:24:10;;;;;;;;;;;;;;;30.75;28.42;97586.69;110350;1244;59681;-68
2022/07/14 10:26:38;;;;;;;;;;;;;;;30.85;27.11;97583.19;110216;1247;59651;-69
2022/07/14 10:29:08;;;;;;;;;;;;;;;30.69;27.27;97580.23;110536;1244;72252;-68
2022/07/14 10:31:46;;;;;;;;;;;;;;;30.50;27.88;97582.74;110235;1244;68755;-68
2022/07/14 10:34:27;;;;;;;;;;;;;;;29.48;28.72;97580.92;110236;1246;69461;-69
2022/07/14 10:37:15;;;;;;;;;;;;;;;29.95;28.65;97577.68;110434;1244;59683;-70
2022/07/14 10:40:02;;;;;;;;;;;;;;;29.83;28.36;97579.52;110410;1244;59688;-68
2022/07/14 10:42:40;;;;;;;;;;;;;;;29.58;28.27;97575.85;110480;1244;71577;-68
2022/07/14 10:45:09;;;;;;;;;;;;;;;30.03;28.10;97572.66;110249;1244;68606;-69
2022/07/14 10:47:48;;;;;;;;;;;;;;;30.25;28.04;97568.69;110273;1244;68955;-70
2022/07/14 10:50:20;;;;;;;;;;;;;;;30.20;28.35;97565.60;110416;1244;59579;-68
2022/07/14 10:52:56;;;;;;;;;;;;;;;30.15;29.08;97566.77;110348;1244;59740;-69
2022/07/14 10:55:27;;;;;;;;;;;;;;;30.72;29.37;97563.67;110576;1244;71526;-69
2022/07/14 10:57:59;;;;;;;;;;;;;;;31.14;28.08;97563.82;110489;1244;68592;-69
2022/07/14 11:00:55;;;;;;;;;;;;;;;31.02;27.17;97563.40;110439;1244;69447;-69
2022/07/14 11:03:25;;;;;;;;;;;;;;;30.77;27.45;97555.50;110250;1245;59702;-69
2022/07/14 11:06:05;;;;;;;;;;;;;;;30.45;28.09;97549.79;110326;1244;59694;-71
2022/07/14 11:09:10;;;;;;;;;;;;;;;30.00;28.90;97551.13;110334;1244;70793;-69
2022/07/14 11:11:59;;;;;;;;;;;;;;;30.24;28.58;97551.52;110604;1244;68626;-68
2022/07/14 11:14:37;;;;;;;;;;;;;;;30.79;28.42;97548.89;110555;1244;68806;-66
2022/07/14 11:17:08;;;;;;;;;;;;;;;31.10;28.44;97544.09;110572;1244;59674;-71
2022/07/14 11:19:37;;;;;;;;;;;;;;;31.36;26.71;97545.62;110260;1247;59709;-69
2022/07/14 11:22:09;;;;;;;;;;;;;;;30.86;25.73;97535.71;110608;1244;71664;-68
2022/07/14 11:24:48;;;;;;;;;;;;;;;31.07;26.45;97534.20;110587;1244;68524;-68
2022/07/14 11:27:27;;;;;;;;;;;;;;;31.74;25.64;97533.27;110189;1247;68646;-68
2022/07/14 11:29:57;;;;;;;;;;;;;;;31.84;25.07;97532.24;110523;1244;59669;-68
2022/07/14 11:32:33;;;;;;;;;;;;;;;31.73;24.34;97535.19;110298;1244;59748;-68
2022/07/14 11:38:00;;;;;;;;;;;;;;;31.81;24.95;97535.65;110485;1244;67787;-68
2022/07/14 11:40:44;;;;;;;;;;;;;;;31.99;25.01;97532.29;110297;1244;68662;-68
2022/07/14 11:43:25;;;;;;;;;;;;;;;32.16;25.10;97519.85;110562;1244;59774;-68
2022/07/14 11:45:58;;;;;;;;;;;;;;;32.11;25.08;97525.29;110588;1244;59624;-68
2022/07/14 11:48:28;;;;;;;;;;;;;;;32.08;24.17;97524.63;110498;1244;72170;-69
2022/07/14 11:51:04;;;;;;;;;;;;;;;31.52;24.79;97525.98;110550;1244;68076;-69
2022/07/14 11:53:34;;;;;;;;;;;;;;;30.43;26.25;97517.30;110552;1244;69237;-68
2022/07/14 11:56:04;;;;;;;;;;;;;;;29.55;28.11;97520.09;110405;1244;59686;-68
2022/07/14 11:58:33;;;;;;;;;;;;;;;29.14;27.80;97518.45;110542;1244;59630;-71
2022/07/14 12:01:02;;;;;;;;;;;;;;;29.65;28.83;97515.98;110550;1244;71358;-69
2022/07/14 12:03:32;;;;;;;;;;;;;;;29.64;27.90;97516.10;110590;1244;69009;-71
2022/07/14 12:06:01;;;;;;;;;;;;;;;29.56;27.34;97510.57;110598;1244;68697;-68
2022/07/14 12:08:32;;;;;;;;;;;;;;;29.73;27.86;97509.48;110597;1244;59760;-69
2022/07/14 12:11:08;;;;;;;;;;;;;;;30.11;27.13;97511.41;110230;1247;59671;-69
2022/07/14 12:13:46;;;;;;;;;;;;;;;29.82;26.37;97519.00;110497;1244;71880;-70
2022/07/14 12:16:15;;;;;;;;;;;;;;;29.96;26.63;97510.34;110450;1244;68568;-69
2022/07/14 12:18:45;;;;;;;;;;;;;;;30.33;26.39;97507.83;110258;1245;67676;-69
2022/07/14 12:21:14;;;;;;;;;;;;;;;30.33;26.08;97508.00;110588;1244;59685;-69
2022/07/14 12:23:54;;;;;;;;;;;;;;;30.27;26.38;97508.88;110582;1244;59693;-70
2022/07/14 12:26:24;;;;;;;;;;;;;;;30.63;26.91;97510.17;110582;1244;71613;-70
2022/07/14 12:28:55;;;;;;;;;;;;;;;31.03;25.72;97515.33;110594;1244;68527;-70
2022/07/14 12:31:24;;;;;;;;;;;;;;;31.26;25.41;97514.00;110521;1244;68660;-68
2022/07/14 12:33:56;;;;;;;;;;;;;;;30.74;25.63;97513.20;110582;1244;59765;-69
2022/07/14 12:36:27;;;;;;;;;;;;;;;30.41;25.91;97508.17;110674;1244;59665;-69
2022/07/14 12:38:57;;;;;;;;;;;;;;;30.04;26.76;97503.63;110521;1244;71651;-68
2022/07/14 12:41:27;;;;;;;;;;;;;;;30.38;27.72;97500.98;110587;1244;68704;-68
2022/07/14 12:43:58;;;;;;;;;;;;;;;30.88;26.43;97500.52;110545;1244;67811;-70
2022/07/14 12:46:27;;;;;;;;;;;;;;;31.25;27.02;97494.38;110235;1244;59749;-68
2022/07/14 12:48:58;;;;;;;;;;;;;;;31.62;26.36;97494.63;110618;1244;59728;-69
2022/07/14 12:51:30;;;;;;;;;;;;;;;31.79;25.05;97490.92;110640;1244;71507;-67
2022/07/14 12:54:00;;;;;;;;;;;;;;;31.51;25.04;97496.75;110513;1244;67803;-70
2022/07/14 12:56:31;;;;;;;;;;;;;;;31.07;25.03;97494.62;110277;1244;69434;-68
2022/07/14 12:59:02;;;;;;;;;;;;;;;30.99;25.29;97493.60;110159;1247;59716;-68
2022/07/14 13:01:33;;;;;;;;;;;;;;;30.72;25.33;97493.97;110342;1244;59619;-70
2022/07/14 13:04:02;;;;;;;;;;;;;;;30.89;26.02;97491.90;110499;1244;70963;-71
2022/07/14 13:06:42;;;;;;;;;;;;;;;30.80;27.13;97491.18;110257;1244;68261;-68
2022/07/14 13:09:16;;;;;;;;;;;;;;;30.85;27.26;97491.29;110330;1244;69447;-69
2022/07/14 13:11:45;;;;;;;;;;;;;;;30.90;26.97;97491.66;110166;1247;59676;-69